Time;durP1;ratioP1;P1;durP2;ratioP2;P2;SDS_P1;SDS_P2;PMS_P1;PMS_P2;Temp;Humidity;BMP_temperature;BMP_pressure;BME280_temperature;BME280_humidity;BME280_pressure;Samples;Min_cycle;Max_cycle;Signal;HPM_P1;HPM_P2
2022/09/12 00:01:50;;;;;;;6.05;4.70;;;;;;;20.57;68.43;99276.72;5049795;28;20381;-37
2022/09/12 00:04:16;;;;;;;6.20;4.70;;;;;;;20.80;67.93;99280.63;5049995;28;20024;-37
2022/09/12 00:06:41;;;;;;;5.85;4.90;;;;;;;20.95;67.36;99274.31;5049925;28;20431;-37
2022/09/12 00:09:10;;;;;;;5.15;4.65;;;;;;;21.20;65.98;99272.47;5049968;28;20285;-37
2022/09/12 00:11:36;;;;;;;5.32;4.82;;;;;;;21.30;66.49;99275.06;5050300;28;20047;-37
2022/09/12 00:14:05;;;;;;;5.15;4.65;;;;;;;21.23;66.13;99269.19;5049988;28;20422;-37
2022/09/12 00:16:33;;;;;;;4.90;4.45;;;;;;;21.37;65.57;99264.72;5050683;28;20024;-37
2022/09/12 00:19:00;;;;;;;6.35;4.53;;;;;;;21.13;66.28;99274.69;5050627;28;20531;-37
2022/09/12 00:21:26;;;;;;;6.38;4.60;;;;;;;21.04;66.52;99277.22;5053862;28;20021;-38
2022/09/12 00:23:52;;;;;;;6.55;4.38;;;;;;;20.77;67.37;99281.22;5053690;28;20029;-38
2022/09/12 00:26:19;;;;;;;6.25;4.53;;;;;;;21.04;67.18;99288.03;5053598;28;20034;-38
2022/09/12 00:28:46;;;;;;;5.22;4.72;;;;;;;20.94;67.49;99282.69;5053117;28;20481;-37
2022/09/12 00:31:15;;;;;;;5.68;5.07;;;;;;;20.81;68.49;99290.38;5052210;28;20028;-37
2022/09/12 00:33:42;;;;;;;5.30;4.55;;;;;;;21.02;68.75;99291.03;5052683;28;20021;-37
2022/09/12 00:36:10;;;;;;;5.72;4.80;;;;;;;21.00;69.13;99295.91;5052712;28;20036;-37
2022/09/12 00:38:37;;;;;;;5.40;4.90;;;;;;;21.25;67.74;99297.56;5053615;28;20021;-37
2022/09/12 00:41:07;;;;;;;6.13;4.97;;;;;;;21.51;67.39;99294.63;5052922;28;20686;-38
2022/09/12 00:43:42;;;;;;;5.75;5.15;;;;;;;20.67;70.93;99292.88;5052976;28;20515;-38
2022/09/12 00:46:14;;;;;;;5.60;4.85;;;;;;;20.79;71.31;99286.31;5053089;28;20051;-38
2022/09/12 00:48:45;;;;;;;5.20;4.70;;;;;;;20.46;72.72;99281.38;5052994;28;20024;-38
2022/09/12 00:51:11;;;;;;;5.53;4.93;;;;;;;20.74;72.54;99289.09;5052869;28;20612;-37
2022/09/12 00:53:40;;;;;;;5.93;5.32;;;;;;;20.39;73.27;99282.78;5052677;28;20025;-37
2022/09/12 00:56:06;;;;;;;4.97;4.47;;;;;;;20.63;72.49;99275.63;5052771;28;20032;-37
2022/09/12 00:58:43;;;;;;;7.32;4.80;;;;;;;20.49;72.20;99263.81;5052743;28;20035;-37
2022/09/12 01:01:09;;;;;;;5.53;5.03;;;;;;;20.72;71.37;99261.53;5052653;28;20094;-38
2022/09/12 01:03:34;;;;;;;5.30;4.80;;;;;;;21.05;70.06;99266.09;5051122;28;20020;-37
2022/09/12 01:06:22;;;;;;;6.20;4.45;;;;;;;21.33;69.81;99269.09;5052866;28;20017;-38
2022/09/12 01:08:50;;;;;;;4.88;4.43;;;;;;;21.23;69.79;99264.59;5052682;28;20040;-38
2022/09/12 01:11:17;;;;;;;4.95;4.38;;;;;;;21.58;67.62;99269.94;5052764;28;20060;-38
2022/09/12 01:13:45;;;;;;;9.55;4.30;;;;;;;21.90;67.01;99272.00;5051958;28;20410;-38
2022/09/12 01:16:10;;;;;;;5.15;4.65;;;;;;;22.10;66.14;99268.22;5052901;28;20052;-38
2022/09/12 01:19:00;;;;;;;4.78;4.38;;;;;;;22.23;65.76;99272.13;5052123;28;20441;-36
2022/09/12 01:21:52;;;;;;;8.43;4.20;;;;;;;21.79;67.08;99270.50;5052718;28;20040;-36
2022/09/12 01:24:51;;;;;;;5.72;4.40;;;;;;;22.00;65.27;99273.78;5051731;28;20060;-36
2022/09/12 01:27:30;;;;;;;5.85;4.43;;;;;;;22.05;65.48;99265.59;5052460;28;20036;-37
2022/09/12 01:30:04;;;;;;;4.85;4.00;;;;;;;22.27;65.04;99269.66;5052206;28;20045;-37
2022/09/12 01:32:48;;;;;;;4.70;4.30;;;;;;;22.49;63.50;99267.19;5050794;28;20044;-37
2022/09/12 01:35:31;;;;;;;4.93;4.43;;;;;;;22.36;64.02;99257.06;5051715;28;20063;-36
2022/09/12 01:38:31;;;;;;;4.50;4.10;;;;;;;22.42;63.97;99253.97;5051804;28;20488;-37
2022/09/12 01:41:14;;;;;;;4.63;4.20;;;;;;;22.67;62.92;99253.91;5052221;28;20453;-37
2022/09/12 01:43:50;;;;;;;6.15;4.30;;;;;;;22.54;63.35;99253.56;5051908;28;20082;-37
2022/09/12 01:46:30;;;;;;;5.15;4.32;;;;;;;22.62;62.49;99258.31;5051540;28;20057;-38
2022/09/12 01:49:25;;;;;;;4.90;4.10;;;;;;;22.59;63.06;99258.06;5051951;28;20036;-37
2022/09/12 01:52:12;;;;;;;4.90;4.40;;;;;;;22.87;62.28;99248.16;5049464;28;20106;-38
2022/09/12 01:54:44;;;;;;;5.25;4.20;;;;;;;22.78;62.57;99241.78;5051679;28;20040;-37
2022/09/12 01:57:17;;;;;;;6.72;4.28;;;;;;;22.83;61.96;99237.06;5051515;28;20024;-37
2022/09/12 01:59:47;;;;;;;5.07;4.05;;;;;;;22.58;62.35;99241.00;5051948;28;20032;-37
2022/09/12 02:02:27;;;;;;;4.40;4.00;;;;;;;22.37;62.26;99237.81;5051732;28;20063;-37
2022/09/12 02:05:04;;;;;;;4.70;4.07;;;;;;;22.04;62.77;99245.00;5051800;28;20024;-37
2022/09/12 02:07:36;;;;;;;5.05;3.90;;;;;;;21.64;64.27;99244.41;5051029;28;20044;-37
2022/09/12 02:10:12;;;;;;;5.13;4.10;;;;;;;21.16;64.90;99237.06;5051105;28;20039;-37
2022/09/12 02:13:01;;;;;;;4.47;3.95;;;;;;;20.52;67.66;99244.31;5051059;28;20021;-37
2022/09/12 02:15:35;;;;;;;4.50;4.10;;;;;;;20.68;66.58;99231.53;5050816;28;20040;-37
2022/09/12 02:18:03;;;;;;;4.88;4.40;;;;;;;20.35;67.31;99239.28;5050657;28;20127;-38
2022/09/12 02:20:32;;;;;;;4.70;4.18;;;;;;;20.39;67.40;99239.53;5049839;28;20033;-37
2022/09/12 02:22:59;;;;;;;6.45;4.18;;;;;;;19.91;68.68;99235.50;5050339;28;20404;-37
2022/09/12 02:25:28;;;;;;;5.93;4.70;;;;;;;19.84;69.78;99245.78;5050170;28;20032;-38
2022/09/12 02:28:00;;;;;;;5.70;4.65;;;;;;;19.88;68.59;99243.34;5050706;28;20033;-37
2022/09/12 02:30:33;;;;;;;5.50;4.90;;;;;;;20.44;67.25;99247.63;5051039;28;20098;-37
2022/09/12 02:33:28;;;;;;;5.05;4.55;;;;;;;19.82;68.40;99245.25;5050619;28;20111;-37
2022/09/12 02:36:11;;;;;;;5.28;4.03;;;;;;;19.61;69.13;99241.81;5050525;28;20035;-37
2022/09/12 02:38:43;;;;;;;4.68;4.10;;;;;;;19.80;68.42;99238.50;5050541;28;20104;-37
2022/09/12 02:41:10;;;;;;;5.35;4.35;;;;;;;19.65;68.89;99244.78;5050565;28;20040;-37
2022/09/12 02:43:36;;;;;;;5.15;4.57;;;;;;;19.84;67.95;99248.50;5050367;28;20031;-37
2022/09/12 02:46:07;;;;;;;6.00;4.40;;;;;;;19.73;68.00;99250.41;5050615;28;20025;-37
2022/09/12 02:48:38;;;;;;;5.30;4.65;;;;;;;19.48;68.70;99243.19;5050319;28;20053;-37
2022/09/12 02:51:03;;;;;;;5.07;4.57;;;;;;;19.78;67.63;99238.81;5050675;28;20060;-37
2022/09/12 02:53:29;;;;;;;5.35;4.45;;;;;;;19.67;68.30;99246.09;5050346;28;20057;-37
2022/09/12 02:55:54;;;;;;;5.15;4.25;;;;;;;19.75;66.76;99228.56;5050158;28;20040;-37
2022/09/12 02:58:25;;;;;;;5.07;4.38;;;;;;;19.37;68.38;99232.69;5050612;28;20504;-37
2022/09/12 03:01:10;;;;;;;5.32;4.47;;;;;;;20.05;66.72;99226.81;5050288;28;20447;-37
2022/09/12 03:03:54;;;;;;;4.95;4.30;;;;;;;19.58;67.25;99228.06;5069698;28;20044;-37
2022/09/12 03:06:47;;;;;;;5.82;4.50;;;;;;;19.37;68.20;99230.00;5070403;28;20031;-37
2022/09/12 03:09:57;;;;;;;4.45;3.88;;;;;;;19.38;66.95;99223.50;5070487;28;20032;-37
2022/09/12 03:13:07;;;;;;;14.73;11.70;;;;;;;19.84;65.43;99221.50;5070272;28;20032;-38
2022/09/12 03:15:57;;;;;;;4.97;4.45;;;;;;;19.67;65.60;99218.31;5035535;28;20074;-37
2022/09/12 03:18:48;;;;;;;4.40;4.00;;;;;;;19.54;65.66;99242.09;5070229;28;20044;-37
2022/09/12 03:21:33;;;;;;;4.20;3.80;;;;;;;19.43;65.37;99232.41;5070301;28;20086;-37
2022/09/12 03:24:31;;;;;;;4.40;4.00;;;;;;;19.79;64.53;99232.31;5069965;28;20024;-38
2022/09/12 03:27:18;;;;;;;4.47;3.78;;;;;;;19.64;64.84;99238.53;5068190;28;20036;-36
2022/09/12 03:29:46;;;;;;;4.28;3.80;;;;;;;19.12;66.43;99234.38;5070472;28;20021;-38
2022/09/12 03:32:12;;;;;;;4.97;4.00;;;;;;;19.23;66.54;99235.97;5069883;28;20032;-37
2022/09/12 03:34:38;;;;;;;3.97;3.58;;;;;;;19.05;66.88;99231.13;5069678;28;20089;-37
2022/09/12 03:37:03;;;;;;;6.90;3.90;;;;;;;18.91;67.37;99236.28;5069914;28;20016;-37
2022/09/12 03:39:30;;;;;;;4.32;3.50;;;;;;;19.00;67.13;99241.91;5070099;28;20020;-38
2022/09/12 03:41:55;;;;;;;4.05;3.65;;;;;;;19.02;67.26;99228.97;5069768;28;20035;-39
2022/09/12 03:44:21;;;;;;;6.10;3.60;;;;;;;19.22;66.19;99239.72;5070058;28;20021;-37
2022/09/12 03:46:47;;;;;;;5.22;3.70;;;;;;;19.28;66.07;99244.03;5069909;28;20482;-37
2022/09/12 03:49:13;;;;;;;7.63;6.43;;;;;;;18.84;67.19;99247.31;5069847;28;20032;-37
2022/09/12 03:51:38;;;;;;;4.90;3.92;;;;;;;18.88;67.12;99251.09;5069991;28;20032;-37
2022/09/12 03:54:05;;;;;;;4.10;3.55;;;;;;;18.99;66.83;99245.72;5070656;28;20020;-37
2022/09/12 03:56:30;;;;;;;4.57;3.70;;;;;;;19.05;65.77;99250.00;5073811;28;20028;-37
2022/09/12 03:58:56;;;;;;;5.28;3.60;;;;;;;19.02;66.12;99250.53;5073691;28;20345;-37
2022/09/12 04:01:22;;;;;;;5.35;3.50;;;;;;;18.88;66.04;99250.28;5072766;28;20059;-37
2022/09/12 04:03:50;;;;;;;3.97;3.50;;;;;;;18.89;66.14;99251.91;5052894;28;20098;-37
2022/09/12 04:06:18;;;;;;;6.85;3.70;;;;;;;19.09;65.67;99248.38;5053688;28;20477;-37
2022/09/12 04:08:47;;;;;;;4.88;3.40;;;;;;;19.08;65.62;99242.19;5046929;28;20473;-37
2022/09/12 04:11:14;;;;;;;4.78;3.28;;;;;;;19.27;64.82;99250.53;5036517;28;20033;-37
2022/09/12 04:13:42;;;;;;;5.82;3.50;;;;;;;19.96;63.34;99255.47;5033808;28;20108;-37
2022/09/12 04:16:08;;;;;;;3.90;3.20;;;;;;;20.04;62.34;99257.56;5033183;28;20141;-37
2022/09/12 04:18:34;;;;;;;4.68;2.88;;;;;;;19.59;63.13;99257.47;5033439;28;20053;-37
2022/09/12 04:21:09;;;;;;;3.40;2.95;;;;;;;19.57;64.35;99264.19;5033075;28;20032;-37
2022/09/12 04:23:35;;;;;;;6.00;3.50;;;;;;;19.87;62.86;99264.13;5036382;28;20025;-37
2022/09/12 04:26:02;;;;;;;8.20;5.72;;;;;;;19.96;62.56;99268.97;5049550;28;20416;-37
2022/09/12 04:28:28;;;;;;;6.80;4.20;;;;;;;19.80;62.79;99276.31;5053113;28;20029;-37
2022/09/12 04:30:54;;;;;;;3.33;3.03;;;;;;;19.77;62.45;99272.28;5052316;28;20052;-38
2022/09/12 04:33:20;;;;;;;4.65;2.85;;;;;;;19.99;61.99;99277.31;5053214;28;20048;-37
2022/09/12 04:35:46;;;;;;;4.82;3.00;;;;;;;20.22;61.93;99277.72;5052551;28;20477;-37
2022/09/12 04:38:11;;;;;;;3.08;2.78;;;;;;;20.55;60.61;99275.41;5052928;28;20029;-37
2022/09/12 04:40:37;;;;;;;3.60;2.78;;;;;;;20.37;59.94;99274.16;5052670;28;20112;-36
2022/09/12 04:43:03;;;;;;;3.42;2.75;;;;;;;20.32;59.69;99280.41;5052738;28;20400;-37
2022/09/12 04:45:29;;;;;;;3.38;2.65;;;;;;;20.80;58.81;99286.03;5051604;28;20115;-37
2022/09/12 04:47:54;;;;;;;3.88;2.72;;;;;;;20.98;57.51;99281.88;5049940;28;20556;-38
2022/09/12 04:50:20;;;;;;;6.13;3.15;;;;;;;21.23;57.16;99288.94;5052103;28;20111;-38
2022/09/12 04:52:52;;;;;;;5.20;2.70;;;;;;;21.24;56.07;99290.53;5052291;28;20118;-37
2022/09/12 04:55:19;;;;;;;4.43;2.47;;;;;;;21.36;55.71;99283.94;5052217;28;20515;-37
2022/09/12 04:57:44;;;;;;;3.08;2.50;;;;;;;21.86;54.34;99298.88;5052284;28;20474;-37
2022/09/12 05:00:13;;;;;;;2.97;2.40;;;;;;;21.60;55.24;99301.03;5052739;28;20056;-37
2022/09/12 05:02:40;;;;;;;5.63;2.45;;;;;;;21.53;55.55;99295.16;5052031;28;20047;-37
2022/09/12 05:05:06;;;;;;;3.50;2.50;;;;;;;21.71;54.73;99311.78;5052015;28;20032;-37
2022/09/12 05:07:32;;;;;;;5.53;2.50;;;;;;;22.43;53.37;99323.38;5051734;28;20345;-36
2022/09/12 05:09:57;;;;;;;2.95;2.40;;;;;;;22.21;53.09;99310.34;5052529;28;20021;-37
2022/09/12 05:12:23;;;;;;;6.18;3.47;;;;;;;22.72;51.98;99303.44;5052274;28;20025;-39
2022/09/12 05:14:49;;;;;;;10.38;8.05;;;;;;;22.95;51.31;99317.19;5051948;28;20032;-36
2022/09/12 05:17:15;;;;;;;4.30;3.70;;;;;;;22.99;50.62;99316.28;5052308;28;20503;-37
2022/09/12 05:19:40;;;;;;;3.17;2.28;;;;;;;23.52;50.11;99319.78;5051280;28;20053;-36
2022/09/12 05:22:06;;;;;;;3.90;2.35;;;;;;;23.60;49.48;99317.16;5051958;28;20032;-37
2022/09/12 05:24:31;;;;;;;3.97;2.38;;;;;;;23.82;48.59;99326.59;5051742;28;20472;-36
2022/09/12 05:26:57;;;;;;;3.95;2.00;;;;;;;24.43;47.27;99324.50;5051697;28;20029;-37
2022/09/12 05:29:24;;;;;;;5.35;2.40;;;;;;;25.02;45.67;99331.88;5051591;28;20469;-37
2022/09/12 05:31:51;;;;;;;4.50;2.42;;;;;;;25.01;45.68;99333.81;5051569;28;20025;-37
2022/09/12 05:34:18;;;;;;;4.55;2.40;;;;;;;24.21;47.67;99322.53;5051944;28;20037;-37
2022/09/12 05:36:43;;;;;;;7.45;2.80;;;;;;;23.89;48.43;99331.59;5051725;28;20048;-38
2022/09/12 05:39:09;;;;;;;10.60;2.55;;;;;;;24.64;46.53;99337.69;5051323;28;20566;-37
2022/09/12 05:41:35;;;;;;;7.93;2.50;;;;;;;25.21;45.80;99331.69;5051498;28;20028;-37
2022/09/12 05:44:06;;;;;;;6.68;2.10;;;;;;;25.32;45.63;99327.63;5051552;28;20107;-37
2022/09/12 05:46:36;;;;;;;4.93;2.60;;;;;;;25.28;45.17;99329.34;5050913;28;20104;-37
2022/09/12 05:49:04;;;;;;;6.97;2.70;;;;;;;25.42;45.01;99315.66;5051032;28;20045;-37
2022/09/12 05:51:39;;;;;;;6.75;2.30;;;;;;;25.40;45.37;99331.50;5050388;28;20476;-37
2022/09/12 05:54:07;;;;;;;3.63;2.40;;;;;;;25.63;43.77;99319.47;5050176;28;20021;-38
2022/09/12 05:56:37;;;;;;;8.18;2.50;;;;;;;25.71;44.06;99318.69;5050152;28;20493;-37
2022/09/12 05:59:06;;;;;;;4.55;2.10;;;;;;;26.06;43.34;99321.53;5050076;28;20017;-37
2022/09/12 06:01:33;;;;;;;3.40;2.10;;;;;;;26.79;41.98;99326.50;5049831;28;20024;-37
2022/09/12 06:04:01;;;;;;;4.30;1.95;;;;;;;25.65;43.53;99325.41;5049873;28;20040;-37
2022/09/12 06:06:28;;;;;;;6.18;2.30;;;;;;;25.52;42.83;99329.03;5050115;28;20116;-38
2022/09/12 06:08:57;;;;;;;3.08;1.92;;;;;;;25.70;43.40;99325.25;5049850;28;20028;-37
2022/09/12 06:11:25;;;;;;;5.10;3.42;;;;;;;26.54;41.52;99330.78;5050015;28;20048;-38
2022/09/12 06:13:51;;;;;;;3.55;2.30;;;;;;;25.88;41.77;99317.16;5050161;28;20428;-38
2022/09/12 06:16:23;;;;;;;5.00;2.15;;;;;;;26.90;40.84;99316.84;5047736;28;20017;-38
2022/09/12 06:18:53;;;;;;;5.57;1.88;;;;;;;27.22;39.75;99320.16;5049665;28;20551;-37
2022/09/12 06:21:20;;;;;;;2.83;1.83;;;;;;;26.28;41.31;99314.38;5049344;28;20025;-37
2022/09/12 06:23:46;;;;;;;4.97;1.70;;;;;;;26.56;40.74;99317.63;5049488;28;20025;-36
2022/09/12 06:26:14;;;;;;;6.32;1.95;;;;;;;26.10;41.42;99321.72;5049774;28;20025;-37
2022/09/12 06:28:42;;;;;;;2.88;1.85;;;;;;;26.86;40.16;99315.88;5050334;28;20033;-44
2022/09/12 06:31:10;;;;;;;5.38;1.70;;;;;;;27.28;39.39;99315.34;5050071;28;20053;-44
2022/09/12 06:33:40;;;;;;;10.10;1.90;;;;;;;26.60;40.32;99306.88;5049139;28;20090;-44
2022/09/12 06:36:12;;;;;;;4.57;1.75;;;;;;;27.25;39.55;99311.34;5049620;28;20060;-44
2022/09/12 06:38:37;;;;;;;3.28;1.60;;;;;;;26.83;39.91;99304.81;5046336;28;20446;-44
2022/09/12 06:41:11;;;;;;;4.10;1.88;;;;;;;26.84;40.05;99320.84;5038168;28;20016;-44
2022/09/12 06:43:37;;;;;;;4.07;1.52;;;;;;;27.80;38.63;99314.38;5049935;28;20498;-46
2022/09/12 06:46:03;;;;;;;5.20;1.63;;;;;;;27.75;38.16;99314.56;5050135;28;20039;-44
2022/09/12 06:48:29;;;;;;;3.15;1.55;;;;;;;28.24;37.09;99309.50;5050410;28;20025;-43
2022/09/12 06:51:00;;;;;;;3.38;1.63;;;;;;;28.46;37.17;99311.09;5050023;28;20174;-47
2022/09/12 06:53:26;;;;;;;4.43;1.52;;;;;;;28.75;36.19;99317.66;5049887;28;20025;-44
2022/09/12 06:56:08;;;;;;;2.00;1.60;;;;;;;27.82;38.12;99314.84;5049559;28;20063;-46
2022/09/12 06:58:34;;;;;;;3.05;1.60;;;;;;;28.23;37.12;99308.66;5047943;28;20020;-46
2022/09/12 07:01:05;;;;;;;5.00;2.08;;;;;;;28.40;37.46;99313.22;5049798;28;20487;-37
2022/09/12 07:03:31;;;;;;;5.65;1.67;;;;;;;28.30;37.58;99323.78;5048528;28;20376;-37
2022/09/12 07:06:01;;;;;;;3.80;1.65;;;;;;;29.05;36.19;99313.69;5049210;28;20039;-37
2022/09/12 07:08:30;;;;;;;2.80;1.52;;;;;;;28.96;36.01;99304.75;5049656;28;20021;-37
2022/09/12 07:10:57;;;;;;;2.72;1.50;;;;;;;28.86;35.93;99307.88;5049429;28;20020;-37
2022/09/12 07:13:23;;;;;;;5.80;1.40;;;;;;;28.04;37.22;99308.31;5049863;28;20033;-38
2022/09/12 07:15:50;;;;;;;3.67;1.42;;;;;;;28.40;36.45;99315.16;5049886;28;20033;-36
2022/09/12 07:18:16;;;;;;;1.85;1.42;;;;;;;28.59;36.52;99306.53;5049645;28;20637;-36
2022/09/12 07:20:41;;;;;;;2.47;1.55;;;;;;;28.56;36.23;99290.75;5050621;28;20028;-37
2022/09/12 07:23:07;;;;;;;3.42;1.55;;;;;;;28.76;36.10;99309.09;5050356;28;20025;-38
2022/09/12 07:25:33;;;;;;;2.28;1.42;;;;;;;29.37;35.02;99311.25;5050288;28;20033;-37
2022/09/12 07:27:58;;;;;;;2.60;1.30;;;;;;;29.70;34.41;99302.19;5051026;28;20104;-37
2022/09/12 07:30:24;;;;;;;7.57;1.50;;;;;;;29.75;34.68;99310.19;5054122;28;20357;-37
2022/09/12 07:32:53;;;;;;;4.63;1.40;;;;;;;29.29;34.46;99300.41;5053967;28;20029;-37
2022/09/12 07:35:20;;;;;;;4.60;1.50;;;;;;;29.05;34.72;99297.25;5054088;28;20021;-37
2022/09/12 07:37:45;;;;;;;2.88;1.30;;;;;;;28.75;34.61;99312.19;5053327;28;20073;-37
2022/09/12 07:40:10;;;;;;;2.13;1.13;;;;;;;29.49;34.16;99315.97;5054143;28;20056;-37
2022/09/12 07:42:36;;;;;;;4.20;1.67;;;;;;;28.65;35.14;99308.72;5054054;28;20116;-37
2022/09/12 07:45:02;;;;;;;2.00;1.30;;;;;;;28.31;35.08;99298.00;5053705;28;20451;-38
2022/09/12 07:47:27;;;;;;;1.30;1.20;;;;;;;29.18;33.98;99300.03;5053211;28;20025;-37
2022/09/12 07:49:52;;;;;;;2.63;1.27;;;;;;;29.20;34.07;99300.50;5053979;28;20017;-38
2022/09/12 07:52:18;;;;;;;3.60;1.20;;;;;;;29.63;33.38;99304.69;5053680;28;20086;-37
2022/09/12 07:54:43;;;;;;;2.15;1.20;;;;;;;29.08;33.60;99287.56;5053525;28;20029;-37
2022/09/12 07:57:09;;;;;;;3.58;1.13;;;;;;;29.21;33.77;99289.22;5053232;28;20029;-38
2022/09/12 07:59:34;;;;;;;2.90;1.13;;;;;;;27.76;35.53;99295.09;5053338;28;20128;-36
2022/09/12 08:02:00;;;;;;;2.60;1.40;;;;;;;28.52;34.62;99296.13;5053408;28;20496;-36
2022/09/12 08:04:25;;;;;;;2.70;1.20;;;;;;;28.96;33.75;99309.41;5053048;28;20100;-37
2022/09/12 08:06:50;;;;;;;2.45;1.20;;;;;;;27.75;35.50;99295.41;5053057;28;20159;-38
2022/09/12 08:09:16;;;;;;;2.88;1.30;;;;;;;27.82;35.51;99288.31;5052696;28;20535;-37
2022/09/12 08:11:42;;;;;;;7.00;1.33;;;;;;;27.59;35.38;99292.44;5053232;28;20029;-36
2022/09/12 08:14:08;;;;;;;3.90;1.10;;;;;;;28.10;34.61;99289.78;5053495;28;20053;-36
2022/09/12 08:16:34;;;;;;;2.55;1.30;;;;;;;28.80;33.62;99296.34;5037090;28;20044;-37
2022/09/12 08:19:01;;;;;;;4.00;1.50;;;;;;;29.14;33.31;99283.47;5053330;28;20037;-37
2022/09/12 08:21:29;;;;;;;4.95;1.40;;;;;;;29.42;32.62;99286.38;5054109;28;20041;-38
2022/09/12 08:23:59;;;;;;;2.53;1.10;;;;;;;29.09;33.22;99296.56;5052647;28;20033;-37
2022/09/12 08:26:25;;;;;;;4.03;1.13;;;;;;;28.66;32.85;99302.09;5052942;28;20516;-37
2022/09/12 08:28:52;;;;;;;3.15;1.17;;;;;;;28.49;33.04;99285.81;5053079;28;20029;-37
2022/09/12 08:31:19;;;;;;;2.17;0.93;;;;;;;28.39;33.39;99292.47;5052521;28;20029;-36
2022/09/12 08:33:45;;;;;;;4.60;1.23;;;;;;;27.67;34.50;99299.81;5053089;28;20036;-37
2022/09/12 08:36:16;;;;;;;1.48;1.15;;;;;;;27.64;34.00;99282.09;5052612;28;20078;-38
2022/09/12 08:38:44;;;;;;;2.28;1.10;;;;;;;28.36;33.65;99289.59;5050933;28;20033;-37
2022/09/12 08:41:40;;;;;;;5.70;1.40;;;;;;;28.76;32.77;99281.72;5052229;28;20531;-37
2022/09/12 08:44:42;;;;;;;1.30;1.00;;;;;;;29.52;32.24;99287.88;5052985;28;20033;-37
2022/09/12 08:47:16;;;;;;;1.05;0.93;;;;;;;28.79;31.53;99280.28;5052761;28;20116;-37
2022/09/12 08:50:16;;;;;;;1.67;1.20;;;;;;;27.97;33.31;99267.84;5052788;28;20473;-37
2022/09/12 08:52:51;;;;;;;2.60;1.10;;;;;;;27.20;34.50;99275.19;5047758;28;20040;-38
2022/09/12 08:55:30;;;;;;;1.38;0.90;;;;;;;27.29;34.46;99274.06;5052584;28;20024;-37
2022/09/12 08:57:58;;;;;;;2.45;1.20;;;;;;;27.80;33.88;99268.72;5052520;28;20025;-37
2022/09/12 09:00:33;;;;;;;2.55;1.20;;;;;;;28.20;32.56;99264.78;5052034;28;20033;-38
2022/09/12 09:03:01;;;;;;;1.45;1.00;;;;;;;27.51;33.54;99258.53;5051589;28;20028;-37
2022/09/12 09:05:30;;;;;;;1.23;1.13;;;;;;;27.36;34.25;99259.09;5052543;28;20049;-37
2022/09/12 09:07:55;;;;;;;2.95;1.30;;;;;;;27.39;34.38;99261.19;5052370;28;20397;-37
2022/09/12 09:10:26;;;;;;;2.15;1.27;;;;;;;28.34;34.02;99257.09;5052376;28;20021;-37
2022/09/12 09:14:46;;;;;;;2.95;1.30;;;;;;;28.31;33.22;99246.03;5051737;28;20029;-37
2022/09/12 09:16:29;;;;;;;4.40;1.30;;;;;;;28.59;33.37;99260.00;5051221;28;20056;-37
2022/09/12 09:18:57;;;;;;;1.92;1.63;;;;;;;29.03;32.45;99260.38;5052470;28;20053;-37
2022/09/12 09:21:28;;;;;;;2.95;1.52;;;;;;;28.73;32.38;99244.09;5052673;28;20028;-37
2022/09/12 09:24:04;;;;;;;1.60;1.17;;;;;;;28.12;32.56;99249.22;5052210;28;20048;-37
2022/09/12 09:26:42;;;;;;;1.65;1.02;;;;;;;27.82;33.39;99239.09;5052335;28;20025;-37
2022/09/12 09:29:16;;;;;;;3.40;1.83;;;;;;;28.44;33.11;99245.78;5052462;28;20107;-37
2022/09/12 09:31:47;;;;;;;2.92;1.20;;;;;;;28.02;32.98;99245.75;5052032;28;20473;-37
2022/09/12 09:34:22;;;;;;;2.50;1.83;;;;;;;27.70;33.84;99239.00;5051636;28;20027;-37
2022/09/12 09:37:18;;;;;;;3.83;1.88;;;;;;;27.91;33.94;99238.28;5051840;28;20031;-36
2022/09/12 09:40:08;;;;;;;1.60;1.27;;;;;;;28.48;32.57;99234.94;5051842;28;20025;-37
2022/09/12 09:42:52;;;;;;;;;;;;;;;28.45;32.64;99246.56;5051919;28;20129;-37
2022/09/12 09:45:23;;;;;;;2.70;1.20;;;;;;;28.33;32.36;99241.03;5051503;28;19919;-37
2022/09/12 09:47:53;;;;;;;1.67;1.02;;;;;;;28.06;31.74;99240.41;5051055;28;20422;-37
2022/09/12 09:50:19;;;;;;;2.85;1.30;;;;;;;28.59;31.92;99238.88;5051189;28;20029;-37
2022/09/12 09:52:47;;;;;;;2.28;1.25;;;;;;;28.90;32.11;99234.09;5051256;28;20139;-37
2022/09/12 09:55:22;;;;;;;1.60;1.20;;;;;;;28.06;33.01;99229.47;5049950;28;20060;-37
2022/09/12 09:57:50;;;;;;;4.28;1.02;;;;;;;28.14;32.90;99220.44;5051428;28;20021;-37
2022/09/12 10:00:33;;;;;;;4.65;0.95;;;;;;;28.68;32.15;99233.34;5051950;28;20024;-37
2022/09/12 10:03:07;;;;;;;2.15;1.35;;;;;;;28.62;31.74;99237.44;5065613;28;20032;-37
2022/09/12 10:05:43;;;;;;;1.92;1.00;;;;;;;28.60;31.40;99221.34;5071424;28;20032;-37
2022/09/12 10:08:09;;;;;;;3.60;1.25;;;;;;;28.16;32.20;99228.28;5070995;28;20576;-37
2022/09/12 10:10:34;;;;;;;1.70;1.15;;;;;;;28.47;32.08;99234.16;5070468;28;20017;-37
2022/09/12 10:13:08;;;;;;;3.97;1.30;;;;;;;28.46;32.00;99229.81;5070372;28;20031;-37
2022/09/12 10:15:34;;;;;;;3.65;1.10;;;;;;;28.38;32.00;99230.69;5071087;28;20135;-36
2022/09/12 10:18:01;;;;;;;4.43;1.20;;;;;;;28.26;32.42;99227.91;5070429;28;20162;-37
2022/09/12 10:20:36;;;;;;;3.55;1.30;;;;;;;28.94;31.12;99224.88;5070925;28;20054;-37
2022/09/12 10:23:19;;;;;;;3.85;1.27;;;;;;;28.83;31.24;99226.44;5071049;28;20024;-37
2022/09/12 10:25:53;;;;;;;1.90;1.10;;;;;;;28.08;31.19;99221.75;5071200;28;20027;-37
2022/09/12 10:28:30;;;;;;;1.50;1.10;;;;;;;28.06;31.77;99210.34;5070965;28;20035;-37
2022/09/12 10:30:56;;;;;;;2.50;1.00;;;;;;;28.85;30.64;99213.22;5071406;28;20495;-37
2022/09/12 10:33:24;;;;;;;3.78;1.10;;;;;;;28.83;30.47;99208.06;5070932;28;20032;-37
2022/09/12 10:35:52;;;;;;;2.08;1.08;;;;;;;28.43;31.56;99208.59;5071280;28;20469;-37
2022/09/12 10:38:31;;;;;;;2.17;1.00;;;;;;;28.38;31.38;99227.94;5071024;28;20017;-37
2022/09/12 10:41:00;;;;;;;1.40;1.10;;;;;;;29.26;30.47;99211.47;5070547;28;20312;-37
2022/09/12 10:43:25;;;;;;;;;;;;;;;29.49;30.31;99225.50;5071335;28;20028;-38
2022/09/12 10:45:55;;;;;;;2.53;1.10;;;;;;;29.38;29.89;99216.19;5071124;28;19908;-38
2022/09/12 10:48:23;;;;;;;3.38;1.48;;;;;;;29.15;30.47;99230.31;5070787;28;20318;-37
2022/09/12 10:50:48;;;;;;;8.95;2.00;;;;;;;28.69;31.05;99209.50;5071058;28;20400;-36
2022/09/12 10:53:31;;;;;;;3.50;1.50;;;;;;;29.17;30.63;99206.13;5071031;28;20028;-37
2022/09/12 10:56:12;;;;;;;4.15;2.05;;;;;;;28.70;30.67;99202.91;5071058;28;20557;-38
2022/09/12 10:58:55;;;;;;;8.10;1.70;;;;;;;29.13;30.69;99218.06;5071120;28;20069;-38
2022/09/12 11:01:33;;;;;;;2.95;1.60;;;;;;;28.89;30.60;99216.88;5070492;28;20123;-38
2022/09/12 11:04:23;;;;;;;3.80;1.60;;;;;;;28.74;30.59;99207.34;5070153;28;20484;-38
2022/09/12 11:06:54;;;;;;;5.70;1.95;;;;;;;28.91;30.89;99208.31;5070276;28;20020;-38
2022/09/12 11:09:34;;;;;;;4.03;1.92;;;;;;;29.24;30.58;99211.00;5070285;28;20112;-36
2022/09/12 11:12:08;;;;;;;4.28;1.58;;;;;;;29.62;29.83;99209.88;5070603;28;20028;-37
2022/09/12 11:14:45;;;;;;;2.58;1.27;;;;;;;29.75;30.74;99208.75;5070801;28;20424;-40
2022/09/12 11:17:44;;;;;;;1.08;1.02;;;;;;;29.45;30.33;99208.16;5070300;28;20032;-38
2022/09/12 11:20:40;;;;;;;2.28;1.20;;;;;;;29.70;29.66;99195.25;5070537;28;20056;-38
2022/09/12 11:23:24;;;;;;;3.65;1.50;;;;;;;29.62;29.46;99198.91;5070455;28;20560;-38
2022/09/12 11:26:08;;;;;;;2.33;1.25;;;;;;;29.43;30.03;99202.22;5070512;28;20123;-36
2022/09/12 11:28:51;;;;;;;8.57;1.90;;;;;;;28.40;31.02;99192.84;5070433;28;20393;-38
2022/09/12 11:31:31;;;;;;;5.60;1.60;;;;;;;28.19;31.21;99203.81;5070568;28;20031;-36
2022/09/12 11:34:01;;;;;;;2.85;1.40;;;;;;;28.79;30.75;99200.88;5070740;28;20028;-37
2022/09/12 11:36:41;;;;;;;2.95;1.40;;;;;;;29.11;30.05;99195.69;5070435;28;20541;-37
2022/09/12 11:39:23;;;;;;;3.92;1.38;;;;;;;28.85;29.71;99194.06;5070554;28;20125;-35
2022/09/12 11:41:58;;;;;;;2.13;1.30;;;;;;;28.27;30.20;99192.00;5070105;28;20027;-38
2022/09/12 11:44:47;;;;;;;1.90;1.20;;;;;;;29.11;29.63;99187.47;5070376;28;20120;-37
2022/09/12 11:47:13;;;;;;;1.50;1.40;;;;;;;28.96;29.52;99186.19;5070265;28;20021;-37
2022/09/12 11:49:46;;;;;;;2.67;1.55;;;;;;;29.38;30.17;99189.56;5070205;28;20090;-37
2022/09/12 11:52:28;;;;;;;1.27;1.17;;;;;;;29.56;29.61;99194.81;5070328;28;20016;-37
2022/09/12 11:55:04;;;;;;;3.28;1.40;;;;;;;28.71;30.77;99190.81;5070784;28;20031;-37
2022/09/12 11:57:38;;;;;;;1.80;1.50;;;;;;;28.93;31.09;99195.09;5070178;28;20381;-37